Time;durP1;ratioP1;P1;durP2;ratioP2;P2;SDS_P1;SDS_P2;PMS_P1;PMS_P2;Temp;Humidity;BMP_temperature;BMP_pressure;BME280_temperature;BME280_humidity;BME280_pressure;Samples;Min_cycle;Max_cycle;Signal;HPM_P1;HPM_P2
2023/04/22 00:01:01;;;;;;;28.97;17.70;;;;;;;;;;5000030;28;20258;-68
2023/04/22 00:03:27;;;;;;;22.43;17.20;;;;;;;;;;5017454;28;20645;-71
2023/04/22 00:05:53;;;;;;;22.03;18.83;;;;;;;;;;5017381;28;20179;-70
2023/04/22 00:08:19;;;;;;;28.67;18.97;;;;;;;;;;5017808;28;20257;-71
2023/04/22 00:10:45;;;;;;;24.90;18.07;;;;;;;;;;5017846;28;20274;-70
2023/04/22 00:13:11;;;;;;;24.77;17.70;;;;;;;;;;4999896;28;20172;-70
2023/04/22 00:15:37;;;;;;;19.23;17.10;;;;;;;;;;4999641;28;20184;-69
2023/04/22 00:18:03;;;;;;;23.30;17.63;;;;;;;;;;4999606;28;20700;-69
2023/04/22 00:20:31;;;;;;;21.97;17.40;;;;;;;;;;4999749;28;20207;-68
2023/04/22 00:22:58;;;;;;;25.07;18.20;;;;;;;;;;5017331;28;20183;-70
2023/04/22 00:25:24;;;;;;;25.47;18.93;;;;;;;;;;5017198;28;20179;-69
2023/04/22 00:27:50;;;;;;;26.27;20.03;;;;;;;;;;4999400;28;20234;-69
2023/04/22 00:30:15;;;;;;;26.47;19.77;;;;;;;;;;5016788;28;20275;-71
2023/04/22 00:32:41;;;;;;;25.90;20.87;;;;;;;;;;5016601;28;20215;-71
2023/04/22 00:35:08;;;;;;;26.80;20.30;;;;;;;;;;4998961;28;20187;-69
2023/04/22 00:37:34;;;;;;;27.93;21.20;;;;;;;;;;5017567;28;20180;-69
2023/04/22 00:40:00;;;;;;;27.60;19.70;;;;;;;;;;5017159;28;20215;-69
2023/04/22 00:42:26;;;;;;;28.20;21.63;;;;;;;;;;5017513;28;20191;-69
2023/04/22 00:44:52;;;;;;;28.97;21.87;;;;;;;;;;5000464;28;20198;-70
2023/04/22 00:47:18;;;;;;;29.63;21.47;;;;;;;;;;5017296;28;20296;-69
2023/04/22 00:49:44;;;;;;;30.97;22.07;;;;;;;;;;5017425;28;20203;-69
2023/04/22 00:52:10;;;;;;;30.93;21.67;;;;;;;;;;5016743;28;20262;-69
2023/04/22 00:54:36;;;;;;;27.47;21.93;;;;;;;;;;5017216;28;20263;-70
2023/04/22 00:57:03;;;;;;;29.57;21.60;;;;;;;;;;5016755;28;20184;-69
2023/04/22 00:59:29;;;;;;;32.83;22.30;;;;;;;;;;5016218;28;20218;-70
2023/04/22 01:01:55;;;;;;;33.97;22.00;;;;;;;;;;5016434;28;20180;-69
2023/04/22 01:04:21;;;;;;;32.43;21.80;;;;;;;;;;5016558;28;20192;-69
2023/04/22 01:06:47;;;;;;;31.63;23.33;;;;;;;;;;5015756;28;20211;-71
2023/04/22 01:09:14;;;;;;;32.07;22.80;;;;;;;;;;4998019;28;20183;-69
2023/04/22 01:11:40;;;;;;;30.33;22.73;;;;;;;;;;4998072;28;20182;-69
2023/04/22 01:14:06;;;;;;;32.13;23.63;;;;;;;;;;5015944;28;20180;-69
2023/04/22 01:16:34;;;;;;;30.57;22.70;;;;;;;;;;5015893;28;20295;-69
2023/04/22 01:19:01;;;;;;;29.70;22.67;;;;;;;;;;4997985;28;20187;-69
2023/04/22 01:21:28;;;;;;;29.87;22.33;;;;;;;;;;4998386;28;20200;-68
2023/04/22 01:23:54;;;;;;;35.37;23.27;;;;;;;;;;5031131;28;20180;-71
2023/04/22 01:26:21;;;;;;;30.97;23.23;;;;;;;;;;5032034;28;20180;-69
2023/04/22 01:28:47;;;;;;;31.10;21.57;;;;;;;;;;5010393;28;20175;-70
2023/04/22 01:31:13;;;;;;;32.27;22.03;;;;;;;;;;5020583;28;20259;-70
2023/04/22 01:33:39;;;;;;;33.97;23.80;;;;;;;;;;5000979;28;20184;-70
2023/04/22 01:36:05;;;;;;;28.27;21.70;;;;;;;;;;5017520;28;20180;-70
2023/04/22 01:38:32;;;;;;;30.23;21.83;;;;;;;;;;4999409;28;20677;-70
2023/04/22 01:40:58;;;;;;;29.90;22.10;;;;;;;;;;5017206;28;20215;-70
2023/04/22 01:43:24;;;;;;;29.67;22.77;;;;;;;;;;5017576;28;20664;-69
2023/04/22 01:45:50;;;;;;;31.20;23.33;;;;;;;;;;5000759;28;20191;-70
2023/04/22 01:48:16;;;;;;;31.60;25.57;;;;;;;;;;5018144;28;20203;-69
2023/04/22 01:50:42;;;;;;;37.67;25.97;;;;;;;;;;5000051;28;20195;-70
2023/04/22 01:53:08;;;;;;;36.17;26.77;;;;;;;;;;5001826;28;20187;-70
2023/04/22 01:55:36;;;;;;;40.33;28.10;;;;;;;;;;5018018;28;20172;-70
2023/04/22 01:58:02;;;;;;;34.40;25.80;;;;;;;;;;5016742;28;20184;-70
2023/04/22 02:00:28;;;;;;;36.73;25.53;;;;;;;;;;4999294;28;20200;-70
2023/04/22 02:02:53;;;;;;;33.83;23.43;;;;;;;;;;5017122;28;20191;-70
2023/04/22 02:05:19;;;;;;;34.90;25.03;;;;;;;;;;4999737;28;20207;-70
2023/04/22 02:07:45;;;;;;;35.93;25.80;;;;;;;;;;4999762;28;20212;-70
2023/04/22 02:10:12;;;;;;;34.63;25.80;;;;;;;;;;5017097;28;20202;-70
2023/04/22 02:12:38;;;;;;;31.97;22.43;;;;;;;;;;5017181;28;20183;-70
2023/04/22 02:15:04;;;;;;;32.00;23.13;;;;;;;;;;5026320;28;20160;-70
2023/04/22 02:17:30;;;;;;;33.17;23.67;;;;;;;;;;5034256;28;20182;-70
2023/04/22 02:19:56;;;;;;;29.30;22.90;;;;;;;;;;5017444;28;20203;-70
2023/04/22 02:22:23;;;;;;;31.97;22.73;;;;;;;;;;5035313;28;20191;-71
2023/04/22 02:24:49;;;;;;;28.67;22.17;;;;;;;;;;5037973;28;20179;-70
2023/04/22 02:27:15;;;;;;;30.03;21.63;;;;;;;;;;5038518;28;20196;-70
2023/04/22 02:29:41;;;;;;;28.07;20.50;;;;;;;;;;5013759;28;20646;-71
2023/04/22 02:32:07;;;;;;;30.73;21.27;;;;;;;;;;5002605;28;20180;-70
2023/04/22 02:34:33;;;;;;;27.00;19.50;;;;;;;;;;5020642;28;20186;-70
2023/04/22 02:36:59;;;;;;;23.33;17.23;;;;;;;;;;5022831;28;20176;-70
2023/04/22 02:39:25;;;;;;;20.33;16.00;;;;;;;;;;5020491;28;20259;-70
2023/04/22 02:41:51;;;;;;;22.17;15.90;;;;;;;;;;5001979;28;20168;-70
2023/04/22 02:44:17;;;;;;;19.40;15.57;;;;;;;;;;5004666;28;20318;-70
2023/04/22 02:46:43;;;;;;;21.57;15.73;;;;;;;;;;5004437;28;20715;-70
2023/04/22 02:49:09;;;;;;;19.47;15.17;;;;;;;;;;5022943;28;20649;-70
2023/04/22 02:51:37;;;;;;;24.53;16.07;;;;;;;;;;5004361;28;20176;-70
2023/04/22 02:54:03;;;;;;;25.87;15.83;;;;;;;;;;5003027;28;20215;-69
2023/04/22 02:56:30;;;;;;;26.87;16.13;;;;;;;;;;5021599;28;20184;-70
2023/04/22 02:58:56;;;;;;;22.17;15.17;;;;;;;;;;5004410;28;20202;-70
2023/04/22 03:01:22;;;;;;;23.63;16.33;;;;;;;;;;5003691;28;20671;-70
2023/04/22 03:03:48;;;;;;;19.80;15.63;;;;;;;;;;5004011;28;20639;-71
2023/04/22 03:06:14;;;;;;;22.00;16.43;;;;;;;;;;5001342;28;20176;-70
2023/04/22 03:08:40;;;;;;;21.97;16.03;;;;;;;;;;5003807;28;20274;-70
2023/04/22 03:11:06;;;;;;;22.80;16.17;;;;;;;;;;5020025;28;20215;-70
2023/04/22 03:13:32;;;;;;;21.93;17.00;;;;;;;;;;5002469;28;20230;-70
2023/04/22 03:15:58;;;;;;;21.13;16.77;;;;;;;;;;5010450;28;20243;-70
2023/04/22 03:18:24;;;;;;;20.70;16.90;;;;;;;;;;5035957;28;20256;-70
2023/04/22 03:20:50;;;;;;;21.50;16.27;;;;;;;;;;5029149;28;20188;-70
2023/04/22 03:23:16;;;;;;;20.80;15.80;;;;;;;;;;5005473;28;20180;-70
2023/04/22 03:25:42;;;;;;;20.37;15.73;;;;;;;;;;5004684;28;20662;-70
2023/04/22 03:28:08;;;;;;;20.83;15.07;;;;;;;;;;5002098;28;20271;-69
2023/04/22 03:30:34;;;;;;;21.80;14.70;;;;;;;;;;5002304;28;20196;-70
2023/04/22 03:33:00;;;;;;;17.53;14.07;;;;;;;;;;5002048;28;20271;-70
2023/04/22 03:35:26;;;;;;;18.47;13.10;;;;;;;;;;5021128;28;20176;-71
2023/04/22 03:37:52;;;;;;;17.67;13.27;;;;;;;;;;5027888;28;20188;-69
2023/04/22 03:40:18;;;;;;;16.93;13.73;;;;;;;;;;5008807;28;20227;-69
2023/04/22 03:42:44;;;;;;;16.50;13.97;;;;;;;;;;5007778;28;20187;-70
2023/04/22 03:45:10;;;;;;;16.43;13.17;;;;;;;;;;5032687;28;20209;-70
2023/04/22 03:47:36;;;;;;;15.43;13.23;;;;;;;;;;5031605;28;20204;-70
2023/04/22 03:50:02;;;;;;;17.63;12.83;;;;;;;;;;5033166;28;20198;-69
2023/04/22 03:52:28;;;;;;;19.83;12.87;;;;;;;;;;5015096;28;20184;-70
2023/04/22 03:54:54;;;;;;;16.93;12.57;;;;;;;;;;5012541;28;20544;-69
2023/04/22 03:57:20;;;;;;;15.93;12.60;;;;;;;;;;5031804;28;20180;-70
2023/04/22 03:59:46;;;;;;;14.70;12.40;;;;;;;;;;5028368;28;20579;-71
2023/04/22 04:02:12;;;;;;;16.00;12.73;;;;;;;;;;5006230;28;20214;-70
2023/04/22 04:04:38;;;;;;;15.20;12.23;;;;;;;;;;5023290;28;20180;-70
2023/04/22 04:07:03;;;;;;;14.23;11.80;;;;;;;;;;5005036;28;20227;-70
2023/04/22 04:09:29;;;;;;;13.27;11.53;;;;;;;;;;5003608;28;20206;-70
2023/04/22 04:11:56;;;;;;;14.80;11.47;;;;;;;;;;5002928;28;20176;-69
2023/04/22 04:14:22;;;;;;;13.63;11.20;;;;;;;;;;5019678;28;20635;-69
2023/04/22 04:16:48;;;;;;;13.80;12.13;;;;;;;;;;5019881;28;20176;-70
2023/04/22 04:19:14;;;;;;;15.10;12.50;;;;;;;;;;5004571;28;20180;-70
2023/04/22 04:21:41;;;;;;;13.27;11.27;;;;;;;;;;5005663;28;20194;-70
2023/04/22 04:24:07;;;;;;;13.13;11.20;;;;;;;;;;5007130;28;20184;-69
2023/04/22 04:26:33;;;;;;;13.47;11.17;;;;;;;;;;5029710;28;20251;-69
2023/04/22 04:29:02;;;;;;;12.83;11.30;;;;;;;;;;5023761;28;20175;-69
2023/04/22 04:31:28;;;;;;;13.20;11.80;;;;;;;;;;5003752;28;20204;-70
2023/04/22 04:33:56;;;;;;;15.27;10.97;;;;;;;;;;5020525;28;20172;-70
2023/04/22 04:36:24;;;;;;;12.27;10.73;;;;;;;;;;5020385;28;20172;-70
2023/04/22 04:38:50;;;;;;;13.80;11.33;;;;;;;;;;5020238;28;20313;-69
2023/04/22 04:41:19;;;;;;;11.40;10.27;;;;;;;;;;5003092;28;20216;-69
2023/04/22 04:43:46;;;;;;;14.03;10.63;;;;;;;;;;5019771;28;20202;-70
2023/04/22 04:46:12;;;;;;;12.47;11.13;;;;;;;;;;5019584;28;20168;-70
2023/04/22 04:48:38;;;;;;;11.87;10.67;;;;;;;;;;5002035;28;20208;-70
2023/04/22 04:51:05;;;;;;;12.40;11.10;;;;;;;;;;5018725;28;20227;-70
2023/04/22 04:53:31;;;;;;;12.67;11.27;;;;;;;;;;5019192;28;20246;-70
2023/04/22 04:55:57;;;;;;;12.43;11.13;;;;;;;;;;5003151;28;20184;-71
2023/04/22 04:58:23;;;;;;;13.93;10.27;;;;;;;;;;5005696;28;20211;-70
2023/04/22 05:00:49;;;;;;;12.73;10.33;;;;;;;;;;5018787;28;20231;-70
2023/04/22 05:03:14;;;;;;;17.83;12.10;;;;;;;;;;5003050;28;20188;-70
2023/04/22 05:05:40;;;;;;;20.53;12.93;;;;;;;;;;5000775;28;20187;-71
2023/04/22 05:08:06;;;;;;;18.57;13.37;;;;;;;;;;5000547;28;20261;-71
2023/04/22 05:10:32;;;;;;;19.87;13.57;;;;;;;;;;5017696;28;20192;-70
2023/04/22 05:12:58;;;;;;;20.93;14.10;;;;;;;;;;5017991;28;20183;-70
2023/04/22 05:15:24;;;;;;;21.60;14.53;;;;;;;;;;5018112;28;20176;-71
2023/04/22 05:17:50;;;;;;;24.17;15.50;;;;;;;;;;5017659;28;20214;-70
2023/04/22 05:20:16;;;;;;;26.80;15.20;;;;;;;;;;4999984;28;20204;-69
2023/04/22 05:22:44;;;;;;;23.43;15.37;;;;;;;;;;5018026;28;20184;-70
2023/04/22 05:25:10;;;;;;;23.20;14.93;;;;;;;;;;5000204;28;20180;-71
2023/04/22 05:27:36;;;;;;;22.63;15.23;;;;;;;;;;5000606;28;20211;-71
2023/04/22 05:30:03;;;;;;;23.00;13.90;;;;;;;;;;5017202;28;20599;-70
2023/04/22 05:32:29;;;;;;;22.00;13.83;;;;;;;;;;5018378;28;20262;-70
2023/04/22 05:34:54;;;;;;;22.13;14.37;;;;;;;;;;5018416;28;20211;-70
2023/04/22 05:37:20;;;;;;;23.63;12.63;;;;;;;;;;5018909;28;20192;-71
2023/04/22 05:39:46;;;;;;;21.27;13.10;;;;;;;;;;5017660;28;20212;-70
2023/04/22 05:42:12;;;;;;;16.80;12.93;;;;;;;;;;5000640;28;20178;-71
2023/04/22 05:44:38;;;;;;;19.70;12.70;;;;;;;;;;5000180;28;20214;-71
2023/04/22 05:47:04;;;;;;;16.73;12.87;;;;;;;;;;5000619;28;20203;-70
2023/04/22 05:49:30;;;;;;;17.73;12.20;;;;;;;;;;5018907;28;20196;-71
2023/04/22 05:51:56;;;;;;;17.07;11.90;;;;;;;;;;4999893;28;20192;-70
2023/04/22 05:54:22;;;;;;;15.23;11.83;;;;;;;;;;5000644;28;20187;-70
2023/04/22 05:56:48;;;;;;;15.87;12.00;;;;;;;;;;5018285;28;20180;-70
2023/04/22 05:59:14;;;;;;;16.50;12.07;;;;;;;;;;5018380;28;20638;-69
2023/04/22 06:01:40;;;;;;;13.70;11.37;;;;;;;;;;5018822;28;20186;-70
2023/04/22 06:04:08;;;;;;;10.57;9.47;;;;;;;;;;5018228;28;20183;-68
2023/04/22 06:06:34;;;;;;;13.60;9.77;;;;;;;;;;5000516;28;20238;-70
2023/04/22 06:09:01;;;;;;;9.63;8.63;;;;;;;;;;5018270;28;20179;-70
2023/04/22 06:11:27;;;;;;;11.47;8.10;;;;;;;;;;5000501;28;20226;-70
2023/04/22 06:13:53;;;;;;;10.87;7.07;;;;;;;;;;5000737;28;20180;-70
2023/04/22 06:16:19;;;;;;;7.60;6.90;;;;;;;;;;5018992;28;20234;-70
2023/04/22 06:18:45;;;;;;;7.67;6.87;;;;;;;;;;5018528;28;20175;-70
2023/04/22 06:21:11;;;;;;;11.23;6.53;;;;;;;;;;5000019;28;20207;-70
2023/04/22 06:23:37;;;;;;;6.80;6.03;;;;;;;;;;5000646;28;20277;-70
2023/04/22 06:26:03;;;;;;;7.43;5.80;;;;;;;;;;5019375;28;20179;-70
2023/04/22 06:28:29;;;;;;;7.67;6.30;;;;;;;;;;5000645;28;20206;-70
2023/04/22 06:30:55;;;;;;;8.27;6.50;;;;;;;;;;5000692;28;20666;-69
2023/04/22 06:33:21;;;;;;;6.63;6.03;;;;;;;;;;5018978;28;20238;-70
2023/04/22 06:35:47;;;;;;;5.57;4.60;;;;;;;;;;5000617;28;20180;-68
2023/04/22 06:38:13;;;;;;;4.47;4.07;;;;;;;;;;5019217;28;20179;-67
2023/04/22 06:40:39;;;;;;;6.30;4.67;;;;;;;;;;5018151;28;20223;-68
2023/04/22 06:43:05;;;;;;;7.23;4.23;;;;;;;;;;5018306;28;20176;-68
2023/04/22 06:45:31;;;;;;;5.33;4.37;;;;;;;;;;5018599;28;20586;-68
2023/04/22 06:47:57;;;;;;;5.70;3.93;;;;;;;;;;5018335;28;20203;-68
2023/04/22 06:50:23;;;;;;;4.50;3.80;;;;;;;;;;5018031;28;20215;-68
2023/04/22 06:52:50;;;;;;;3.93;3.53;;;;;;;;;;5018297;28;20186;-68
2023/04/22 06:55:16;;;;;;;6.67;3.90;;;;;;;;;;5001404;28;20176;-68
2023/04/22 06:57:42;;;;;;;7.83;4.40;;;;;;;;;;5001255;28;20187;-68
2023/04/22 07:00:08;;;;;;;4.77;3.83;;;;;;;;;;5018481;28;20698;-68
2023/04/22 07:02:34;;;;;;;3.63;3.30;;;;;;;;;;5000948;28;20184;-68
2023/04/22 07:05:00;;;;;;;4.70;3.53;;;;;;;;;;5022854;28;20247;-70
2023/04/22 07:07:26;;;;;;;3.80;3.10;;;;;;;;;;5003112;28;20242;-69
2023/04/22 07:09:52;;;;;;;4.03;2.80;;;;;;;;;;4999137;28;20772;-68
2023/04/22 07:12:18;;;;;;;3.10;2.80;;;;;;;;;;5017193;28;20199;-68
2023/04/22 07:14:44;;;;;;;4.90;2.93;;;;;;;;;;4999150;28;20624;-69
2023/04/22 07:17:11;;;;;;;2.93;2.50;;;;;;;;;;4997512;28;20230;-69
2023/04/22 07:19:37;;;;;;;3.40;3.10;;;;;;;;;;5014557;28;20239;-68
2023/04/22 07:22:03;;;;;;;4.97;3.17;;;;;;;;;;5015235;28;20233;-69
2023/04/22 07:24:29;;;;;;;4.17;2.90;;;;;;;;;;5000248;28;20666;-69
2023/04/22 07:26:55;;;;;;;5.00;3.00;;;;;;;;;;5019021;28;20199;-69
2023/04/22 07:29:22;;;;;;;4.37;2.90;;;;;;;;;;5001743;28;20180;-69
2023/04/22 07:31:48;;;;;;;3.03;2.70;;;;;;;;;;5002062;28;20180;-68
2023/04/22 07:34:16;;;;;;;3.07;2.70;;;;;;;;;;5019102;28;20218;-69
2023/04/22 07:36:42;;;;;;;4.60;3.33;;;;;;;;;;5018356;28;20175;-70
2023/04/22 07:39:08;;;;;;;4.07;3.30;;;;;;;;;;5000266;28;20194;-69
2023/04/22 07:41:35;;;;;;;4.57;3.03;;;;;;;;;;4999892;28;20282;-69
2023/04/22 07:44:04;;;;;;;2.93;2.70;;;;;;;;;;5000120;28;20176;-69
2023/04/22 07:46:30;;;;;;;3.73;2.83;;;;;;;;;;5017216;28;20210;-69
2023/04/22 07:48:56;;;;;;;5.43;2.90;;;;;;;;;;5017325;28;20258;-69
2023/04/22 07:51:22;;;;;;;3.30;3.00;;;;;;;;;;5017287;28;20229;-69
2023/04/22 07:53:48;;;;;;;3.93;2.90;;;;;;;;;;5017485;28;20183;-69
2023/04/22 07:56:14;;;;;;;3.30;3.03;;;;;;;;;;4999820;28;20180;-68
2023/04/22 07:58:40;;;;;;;7.83;3.27;;;;;;;;;;5017690;28;20207;-69
2023/04/22 08:01:06;;;;;;;4.30;3.63;;;;;;;;;;5018553;28;20249;-68
2023/04/22 08:03:32;;;;;;;4.83;3.20;;;;;;;;;;5018258;28;20187;-68
2023/04/22 08:05:58;;;;;;;5.60;3.40;;;;;;;;;;5000163;28;20221;-69
2023/04/22 08:08:24;;;;;;;5.37;3.63;;;;;;;;;;4999728;28;20224;-69
2023/04/22 08:10:50;;;;;;;4.13;3.23;;;;;;;;;;5017412;28;20249;-68
2023/04/22 08:13:16;;;;;;;6.20;3.90;;;;;;;;;;4999385;28;20183;-68
2023/04/22 08:15:42;;;;;;;3.43;3.13;;;;;;;;;;4999939;28;20224;-70
2023/04/22 08:18:08;;;;;;;3.60;3.00;;;;;;;;;;5017014;28;20211;-69
2023/04/22 08:20:34;;;;;;;3.93;3.40;;;;;;;;;;5017582;28;20200;-68
2023/04/22 08:23:00;;;;;;;6.60;3.57;;;;;;;;;;5000801;28;20663;-68
2023/04/22 08:25:27;;;;;;;6.33;3.97;;;;;;;;;;5000735;28;20226;-68
2023/04/22 08:27:53;;;;;;;9.83;4.53;;;;;;;;;;5019336;28;20230;-68
2023/04/22 08:30:19;;;;;;;7.13;4.77;;;;;;;;;;5000889;28;20226;-69
2023/04/22 08:32:45;;;;;;;7.00;4.17;;;;;;;;;;5001804;28;20263;-68
2023/04/22 08:35:11;;;;;;;5.90;4.70;;;;;;;;;;5005821;28;20188;-68
2023/04/22 08:37:39;;;;;;;5.27;4.30;;;;;;;;;;5005274;28;20191;-69
2023/04/22 08:40:05;;;;;;;5.77;4.30;;;;;;;;;;5021527;28;20216;-68
2023/04/22 08:42:31;;;;;;;9.00;4.40;;;;;;;;;;5020778;28;20180;-68
2023/04/22 08:44:58;;;;;;;8.63;4.50;;;;;;;;;;4998691;28;20188;-70
2023/04/22 08:47:25;;;;;;;5.33;4.53;;;;;;;;;;5016504;28;20208;-69
2023/04/22 08:49:52;;;;;;;6.13;4.03;;;;;;;;;;4998369;28;20207;-69
2023/04/22 08:52:18;;;;;;;7.60;4.60;;;;;;;;;;5016951;28;20176;-69
2023/04/22 08:54:44;;;;;;;6.73;4.10;;;;;;;;;;5016430;28;20182;-68
2023/04/22 08:57:12;;;;;;;5.03;4.17;;;;;;;;;;4999013;28;20279;-70
2023/04/22 08:59:38;;;;;;;6.10;4.27;;;;;;;;;;5015949;28;20200;-68
2023/04/22 09:02:05;;;;;;;4.80;4.10;;;;;;;;;;5016124;28;20176;-68
2023/04/22 09:04:31;;;;;;;4.43;3.77;;;;;;;;;;4998090;28;20184;-69
2023/04/22 09:06:58;;;;;;;3.53;3.23;;;;;;;;;;4998109;28;20214;-67
2023/04/22 09:09:24;;;;;;;5.77;3.37;;;;;;;;;;5015640;28;20187;-69
2023/04/22 09:11:50;;;;;;;5.37;3.47;;;;;;;;;;4998224;28;20201;-69
2023/04/22 09:14:16;;;;;;;4.83;3.97;;;;;;;;;;4998019;28;20184;-68
2023/04/22 09:16:46;;;;;;;6.27;3.60;;;;;;;;;;5015762;28;20262;-69
2023/04/22 09:19:13;;;;;;;6.27;3.90;;;;;;;;;;4998455;28;20168;-70
2023/04/22 09:21:39;;;;;;;10.10;5.10;;;;;;;;;;5015482;28;20650;-70
2023/04/22 09:24:06;;;;;;;7.60;5.33;;;;;;;;;;4997877;28;20188;-69
2023/04/22 09:26:32;;;;;;;6.57;5.13;;;;;;;;;;5015577;28;20180;-69
2023/04/22 09:28:59;;;;;;;6.20;4.70;;;;;;;;;;5015374;28;20203;-69
2023/04/22 09:31:27;;;;;;;4.13;3.60;;;;;;;;;;5015424;28;20192;-70
2023/04/22 09:33:59;;;;;;;6.67;3.40;;;;;;;;;;5015231;28;20180;-69
2023/04/22 09:36:26;;;;;;;10.03;4.00;;;;;;;;;;5015780;28;20558;-69
2023/04/22 09:38:59;;;;;;;5.13;3.57;;;;;;;;;;4999268;28;20191;-70
2023/04/22 09:41:29;;;;;;;4.30;3.90;;;;;;;;;;4997221;28;20223;-69
2023/04/22 09:43:56;;;;;;;6.13;5.03;;;;;;;;;;4997327;28;20203;-69
2023/04/22 09:46:26;;;;;;;3.83;3.40;;;;;;;;;;4996545;28;20641;-70
2023/04/22 09:48:52;;;;;;;6.90;3.50;;;;;;;;;;5015017;28;20218;-70
2023/04/22 09:51:18;;;;;;;4.80;3.33;;;;;;;;;;4997342;28;20196;-69
2023/04/22 09:53:45;;;;;;;7.63;3.53;;;;;;;;;;5014618;28;20176;-70
2023/04/22 09:56:11;;;;;;;4.87;3.67;;;;;;;;;;4997776;28;20218;-69
2023/04/22 09:58:42;;;;;;;4.50;4.10;;;;;;;;;;5015746;28;20187;-68
2023/04/22 10:01:08;;;;;;;4.17;3.53;;;;;;;;;;4997474;28;20682;-69
2023/04/22 10:03:34;;;;;;;3.97;3.20;;;;;;;;;;5016579;28;20179;-69
2023/04/22 10:06:00;;;;;;;7.27;3.70;;;;;;;;;;4997493;28;20187;-69
2023/04/22 10:08:27;;;;;;;5.53;3.93;;;;;;;;;;5014657;28;20262;-68
2023/04/22 10:10:53;;;;;;;5.00;4.00;;;;;;;;;;5014718;28;20242;-68
2023/04/22 10:13:19;;;;;;;4.67;3.37;;;;;;;;;;5014656;28;20176;-68
2023/04/22 10:15:49;;;;;;;6.18;3.38;;;;;;;;;;4995872;28;20941;-69
2023/04/22 10:18:18;;;;;;;6.43;4.47;;;;;;;;;;5014550;28;20178;-69
2023/04/22 10:20:45;;;;;;;6.10;4.40;;;;;;;;;;5014457;28;20195;-69
2023/04/22 10:23:15;;;;;;;6.30;4.57;;;;;;;;;;5014271;28;20203;-69
2023/04/22 10:25:41;;;;;;;7.17;4.20;;;;;;;;;;5014462;28;20745;-69
2023/04/22 10:28:08;;;;;;;6.23;4.13;;;;;;;;;;4996366;28;20363;-69
2023/04/22 10:30:38;;;;;;;7.40;4.60;;;;;;;;;;5014020;28;20196;-69
2023/04/22 10:33:22;;;;;;;7.67;5.70;;;;;;;;;;5014442;28;20613;-68
2023/04/22 10:36:08;;;;;;;6.20;5.10;;;;;;;;;;5014639;28;20175;-68
2023/04/22 10:38:34;;;;;;;6.47;5.37;;;;;;;;;;5014550;28;20191;-69
2023/04/22 10:41:02;;;;;;;12.50;5.40;;;;;;;;;;5014116;28;20363;-68
2023/04/22 10:43:41;;;;;;;5.97;4.83;;;;;;;;;;4996776;28;20188;-69
2023/04/22 10:46:07;;;;;;;9.93;4.40;;;;;;;;;;4996471;28;20179;-68
2023/04/22 10:48:48;;;;;;;5.70;4.20;;;;;;;;;;5014006;28;20265;-68
2023/04/22 10:51:33;;;;;;;5.82;4.13;;;;;;;;;;4995211;28;20468;-69
2023/04/22 10:54:00;;;;;;;5.90;3.63;;;;;;;;;;5013874;28;20178;-69
2023/04/22 10:56:26;;;;;;;6.47;3.80;;;;;;;;;;4996261;28;20202;-69
2023/04/22 10:58:53;;;;;;;6.23;3.60;;;;;;;;;;5015634;28;20183;-69
2023/04/22 11:01:19;;;;;;;9.27;4.10;;;;;;;;;;5018412;28;20199;-69
2023/04/22 11:03:45;;;;;;;4.77;4.20;;;;;;;;;;5018154;28;20231;-70
2023/04/22 11:06:15;;;;;;;7.33;4.40;;;;;;;;;;5000663;28;20327;-69
2023/04/22 11:08:45;;;;;;;4.67;4.00;;;;;;;;;;5017536;28;20203;-70
2023/04/22 11:11:13;;;;;;;5.70;3.73;;;;;;;;;;5017766;28;20200;-69
2023/04/22 11:13:41;;;;;;;6.77;2.90;;;;;;;;;;5017580;28;20182;-68
2023/04/22 11:16:07;;;;;;;5.63;3.80;;;;;;;;;;5000201;28;20222;-69
2023/04/22 11:18:33;;;;;;;4.77;3.97;;;;;;;;;;5017622;28;20753;-70
2023/04/22 11:21:05;;;;;;;4.23;3.80;;;;;;;;;;5017667;28;20235;-69
2023/04/22 11:23:31;;;;;;;4.73;4.27;;;;;;;;;;5018009;28;20163;-70
2023/04/22 11:25:58;;;;;;;7.20;4.23;;;;;;;;;;5000493;28;20194;-70
2023/04/22 11:28:24;;;;;;;4.00;3.23;;;;;;;;;;5017728;28;20203;-70
2023/04/22 11:30:50;;;;;;;3.77;2.93;;;;;;;;;;5017263;28;20231;-70
2023/04/22 11:33:16;;;;;;;4.17;2.83;;;;;;;;;;5017764;28;20172;-69
2023/04/22 11:35:43;;;;;;;3.53;3.17;;;;;;;;;;5017176;28;20546;-71
2023/04/22 11:38:09;;;;;;;3.67;3.17;;;;;;;;;;5017391;28;20268;-70
2023/04/22 11:40:39;;;;;;;6.07;3.03;;;;;;;;;;5031211;23;20294;-72
2023/04/22 11:43:06;;;;;;;3.87;3.00;;;;;;;;;;5016725;28;20175;-72
2023/04/22 11:45:34;;;;;;;5.27;3.80;;;;;;;;;;4999545;28;20591;-76
2023/04/22 11:48:01;;;;;;;5.37;3.10;;;;;;;;;;4999376;28;20208;-73
2023/04/22 11:50:28;;;;;;;9.03;3.93;;;;;;;;;;4998693;28;20199;-73
2023/04/22 11:52:55;;;;;;;4.43;3.70;;;;;;;;;;5016184;28;20198;-73
2023/04/22 11:55:21;;;;;;;4.23;3.70;;;;;;;;;;5016667;28;20196;-74
2023/04/22 11:57:55;;;;;;;5.67;4.20;;;;;;;;;;5016091;28;20222;-73
2023/04/22 12:00:21;;;;;;;6.17;4.10;;;;;;;;;;5016310;28;20210;-73
2023/04/22 12:02:57;;;;;;;8.17;3.93;;;;;;;;;;5016055;28;20686;-73
2023/04/22 12:05:37;;;;;;;8.83;3.90;;;;;;;;;;5016184;28;20171;-73
2023/04/22 12:08:13;;;;;;;4.77;3.57;;;;;;;;;;4998250;28;20207;-72
2023/04/22 12:10:43;;;;;;;4.40;3.80;;;;;;;;;;5015445;28;20198;-72
2023/04/22 12:13:09;;;;;;;8.93;4.53;;;;;;;;;;4999604;28;20255;-73
2023/04/22 12:15:42;;;;;;;10.00;5.90;;;;;;;;;;4999181;28;20182;-73
2023/04/22 12:18:09;;;;;;;7.53;5.60;;;;;;;;;;5017102;28;20234;-73
2023/04/22 12:20:38;;;;;;;5.07;3.87;;;;;;;;;;5016789;28;20565;-73
2023/04/22 12:23:04;;;;;;;9.03;3.80;;;;;;;;;;5015834;28;20564;-73
2023/04/22 12:25:32;;;;;;;5.27;3.60;;;;;;;;;;4998040;28;20179;-72
2023/04/22 12:27:58;;;;;;;7.30;3.70;;;;;;;;;;5015463;28;20215;-72
2023/04/22 12:30:24;;;;;;;4.23;3.53;;;;;;;;;;5015420;28;20168;-73
2023/04/22 12:32:50;;;;;;;6.23;4.87;;;;;;;;;;5015730;28;20172;-72
2023/04/22 12:35:16;;;;;;;6.27;4.10;;;;;;;;;;4998083;28;20183;-72
2023/04/22 12:37:43;;;;;;;7.43;3.80;;;;;;;;;;5015641;28;20226;-72
2023/04/22 12:40:09;;;;;;;8.33;3.63;;;;;;;;;;5015172;28;20184;-72
2023/04/22 12:42:35;;;;;;;5.67;4.43;;;;;;;;;;4997551;28;20204;-72
2023/04/22 12:45:02;;;;;;;4.83;4.37;;;;;;;;;;4997714;28;20190;-72
2023/04/22 12:47:28;;;;;;;9.17;4.90;;;;;;;;;;4997540;28;20215;-72
2023/04/22 12:49:54;;;;;;;6.70;4.60;;;;;;;;;;5015180;28;20176;-71
2023/04/22 12:52:20;;;;;;;5.47;4.03;;;;;;;;;;5015026;28;20199;-72
2023/04/22 12:54:46;;;;;;;5.73;3.47;;;;;;;;;;5015137;28;20206;-72
2023/04/22 12:57:12;;;;;;;4.23;3.70;;;;;;;;;;4997455;28;20556;-72
2023/04/22 12:59:37;;;;;;;6.00;3.30;;;;;;;;;;4997409;28;20284;-73
2023/04/22 13:02:03;;;;;;;6.17;3.77;;;;;;;;;;5015349;28;20678;-73
2023/04/22 13:04:29;;;;;;;5.60;3.77;;;;;;;;;;5015823;28;20634;-73
2023/04/22 13:06:55;;;;;;;5.53;3.30;;;;;;;;;;5015762;28;20266;-73
2023/04/22 13:09:25;;;;;;;4.67;3.20;;;;;;;;;;4998395;28;20627;-73
2023/04/22 13:11:51;;;;;;;4.63;3.67;;;;;;;;;;5016523;28;20668;-72
2023/04/22 13:14:17;;;;;;;4.20;3.17;;;;;;;;;;5006674;28;20223;-72
2023/04/22 13:16:44;;;;;;;4.13;3.50;;;;;;;;;;5019170;28;20634;-73
2023/04/22 13:19:10;;;;;;;5.33;3.60;;;;;;;;;;4999134;28;20558;-75
2023/04/22 13:21:36;;;;;;;7.57;3.70;;;;;;;;;;5014531;28;20219;-75
2023/04/22 13:24:02;;;;;;;5.70;3.73;;;;;;;;;;5014549;28;20549;-72
2023/04/22 13:26:28;;;;;;;5.70;3.97;;;;;;;;;;5014079;28;20392;-72
2023/04/22 13:28:54;;;;;;;4.45;3.80;;;;;;;;;;4996118;28;20412;-72
2023/04/22 13:31:20;;;;;;;7.63;4.17;;;;;;;;;;4997342;28;20200;-74
2023/04/22 13:33:46;;;;;;;6.13;3.73;;;;;;;;;;5015378;28;20175;-74
2023/04/22 13:36:12;;;;;;;5.40;3.63;;;;;;;;;;5015186;28;20180;-74
2023/04/22 13:38:38;;;;;;;6.27;3.80;;;;;;;;;;5014842;28;20220;-74
2023/04/22 13:41:04;;;;;;;6.03;3.70;;;;;;;;;;4997751;28;20261;-73
2023/04/22 13:43:30;;;;;;;9.10;6.10;;;;;;;;;;5015339;28;20225;-74
2023/04/22 13:45:56;;;;;;;6.23;4.47;;;;;;;;;;4997770;28;20262;-73
2023/04/22 13:48:22;;;;;;;6.50;4.20;;;;;;;;;;4999343;28;20203;-73
2023/04/22 13:50:48;;;;;;;10.87;4.10;;;;;;;;;;5015370;28;20204;-73
2023/04/22 13:53:14;;;;;;;4.67;4.10;;;;;;;;;;5014549;28;20642;-74
2023/04/22 13:55:42;;;;;;;8.13;4.00;;;;;;;;;;4996350;28;20235;-74
2023/04/22 13:58:08;;;;;;;5.03;3.83;;;;;;;;;;4997095;28;20214;-74
2023/04/22 14:00:34;;;;;;;4.33;3.13;;;;;;;;;;5014394;28;20678;-73
2023/04/22 14:03:00;;;;;;;4.07;3.07;;;;;;;;;;4996259;28;20187;-74
2023/04/22 14:05:26;;;;;;;3.67;3.07;;;;;;;;;;5014411;28;20218;-73
2023/04/22 14:07:52;;;;;;;3.07;2.67;;;;;;;;;;5014092;28;20210;-73
2023/04/22 14:10:21;;;;;;;3.80;2.50;;;;;;;;;;4995995;28;20660;-75
2023/04/22 14:12:48;;;;;;;4.43;2.70;;;;;;;;;;5014238;28;20226;-72
2023/04/22 14:15:14;;;;;;;3.13;2.60;;;;;;;;;;4997523;28;20534;-72
2023/04/22 14:17:39;;;;;;;3.20;2.30;;;;;;;;;;5014971;28;20182;-72
2023/04/22 14:20:06;;;;;;;2.97;2.60;;;;;;;;;;4996302;28;20195;-74
2023/04/22 14:22:32;;;;;;;3.13;2.83;;;;;;;;;;4996263;28;20646;-73
2023/04/22 14:24:58;;;;;;;5.03;3.07;;;;;;;;;;4995874;28;20191;-73
2023/04/22 14:27:25;;;;;;;3.03;2.63;;;;;;;;;;5013603;28;20286;-74